createdAt,value
2022-11-17T00:00:54.377Z,24.30
2022-11-17T00:01:54.393Z,23.90
2022-11-17T00:02:54.398Z,23.50
2022-11-17T00:03:54.337Z,22.10
2022-11-17T00:04:54.352Z,21.70
2022-11-17T00:05:54.365Z,21.90
2022-11-17T00:06:54.353Z,22.40
2022-11-17T00:07:54.299Z,25.00
2022-11-17T00:08:54.289Z,26.40
2022-11-17T00:09:54.298Z,25.70
2022-11-17T00:10:54.288Z,24.60
2022-11-17T00:11:54.255Z,22.00
2022-11-17T00:12:54.246Z,23.30
2022-11-17T00:13:54.233Z,25.10
2022-11-17T00:14:54.313Z,20.90
2022-11-17T00:15:54.255Z,21.00
2022-11-17T00:16:54.227Z,21.70
2022-11-17T00:17:54.257Z,21.60
2022-11-17T00:18:54.198Z,21.50
2022-11-17T00:19:54.233Z,20.60
2022-11-17T00:20:54.265Z,22.90
2022-11-17T00:21:54.163Z,22.10
2022-11-17T00:22:54.172Z,25.40
2022-11-17T00:23:54.145Z,19.80
2022-11-17T00:24:54.128Z,23.00
2022-11-17T00:25:54.117Z,25.80
2022-11-17T00:26:54.128Z,23.60
2022-11-17T00:27:54.111Z,29.80
2022-11-17T00:28:54.113Z,31.20
2022-11-17T00:29:54.076Z,23.40
2022-11-17T00:30:54.089Z,25.10
2022-11-17T00:31:54.061Z,22.00
2022-11-17T00:32:54.065Z,21.60
2022-11-17T00:33:54.040Z,23.40
2022-11-17T00:34:54.031Z,20.20
2022-11-17T00:35:54.059Z,20.40
2022-11-17T00:36:54.005Z,19.00
2022-11-17T00:37:54.009Z,24.40
2022-11-17T00:38:53.993Z,18.70
2022-11-17T00:39:59.251Z,21.70
2022-11-17T00:40:56.000Z,23.30
2022-11-17T00:41:53.968Z,19.40
2022-11-17T00:42:53.949Z,19.90
2022-11-17T00:43:53.943Z,20.40
2022-11-17T00:44:53.925Z,23.40
2022-11-17T00:45:53.930Z,18.80
2022-11-17T00:46:53.937Z,20.60
2022-11-17T00:47:53.903Z,18.10
2022-11-17T00:48:53.922Z,19.20
2022-11-17T00:49:53.896Z,18.10
2022-11-17T00:50:53.882Z,23.60
2022-11-17T00:51:53.887Z,17.00
2022-11-17T00:52:53.922Z,18.10
2022-11-17T00:53:53.846Z,21.60
2022-11-17T00:54:53.857Z,17.80
2022-11-17T00:55:53.889Z,18.30
2022-11-17T00:56:53.832Z,19.00
2022-11-17T00:57:53.807Z,21.50
2022-11-17T00:58:53.811Z,17.90
2022-11-17T00:59:53.786Z,22.00
2022-11-17T01:00:53.791Z,19.20
2022-11-17T01:01:53.843Z,21.40
2022-11-17T01:02:53.752Z,16.60
2022-11-17T01:03:54.748Z,16.20
2022-11-17T01:04:53.781Z,22.40
2022-11-17T01:05:53.725Z,17.10
2022-11-17T01:06:54.738Z,15.70
2022-11-17T01:07:53.746Z,17.80
2022-11-17T01:08:53.764Z,17.70
2022-11-17T01:09:53.731Z,16.90
2022-11-17T01:10:53.692Z,16.80
2022-11-17T01:11:53.712Z,19.60
2022-11-17T01:12:53.657Z,15.60
2022-11-17T01:13:53.629Z,15.30
2022-11-17T01:14:53.684Z,17.50
2022-11-17T01:15:53.645Z,15.60
2022-11-17T01:16:53.649Z,20.20
2022-11-17T01:17:53.612Z,18.80
2022-11-17T01:18:53.586Z,19.80
2022-11-17T01:19:53.590Z,20.40
2022-11-17T01:20:53.575Z,18.90
2022-11-17T01:21:53.587Z,17.20
2022-11-17T01:22:53.552Z,18.60
2022-11-17T01:23:53.542Z,17.10
2022-11-17T01:24:53.531Z,17.00
2022-11-17T01:25:53.535Z,17.80
2022-11-17T01:26:53.563Z,17.00
2022-11-17T01:27:53.513Z,15.70
2022-11-17T01:28:53.496Z,17.40
2022-11-17T01:29:53.470Z,15.70
2022-11-17T01:30:53.496Z,17.40
2022-11-17T01:31:53.468Z,15.30
2022-11-17T01:32:53.460Z,15.90
2022-11-17T01:33:53.433Z,17.30
2022-11-17T01:34:53.415Z,16.60
2022-11-17T01:35:53.486Z,16.80
2022-11-17T01:36:53.426Z,17.40
2022-11-17T01:37:53.394Z,16.90
2022-11-17T01:38:53.391Z,16.30
2022-11-17T01:39:53.368Z,15.50
2022-11-17T01:40:53.442Z,15.90
2022-11-17T01:41:53.400Z,15.10
2022-11-17T01:42:53.381Z,19.50
2022-11-17T01:43:53.346Z,15.20
2022-11-17T01:44:53.360Z,15.90
2022-11-17T01:45:53.329Z,15.40
2022-11-17T01:46:58.224Z,17.70
2022-11-17T01:47:55.324Z,16.80
2022-11-17T01:48:53.296Z,16.70
2022-11-17T01:49:53.262Z,16.10
2022-11-17T01:50:53.284Z,15.30
2022-11-17T01:51:53.260Z,18.00
2022-11-17T01:52:53.241Z,18.30
2022-11-17T01:53:53.267Z,15.20
2022-11-17T01:54:53.244Z,17.20
2022-11-17T01:55:53.242Z,16.50
2022-11-17T01:56:53.293Z,18.10
2022-11-17T01:57:53.201Z,16.30
2022-11-17T01:58:53.223Z,15.40
2022-11-17T01:59:53.192Z,15.80
2022-11-17T02:00:53.175Z,15.50
2022-11-17T02:01:53.189Z,15.40
2022-11-17T02:02:53.156Z,17.60
2022-11-17T02:03:53.156Z,15.40
2022-11-17T02:04:53.117Z,16.00
2022-11-17T02:05:53.120Z,15.30
2022-11-17T02:06:53.153Z,15.10
2022-11-17T02:07:53.172Z,16.30
2022-11-17T02:08:53.092Z,15.40
2022-11-17T02:09:53.144Z,18.20
2022-11-17T02:10:53.090Z,15.30
2022-11-17T02:11:53.063Z,16.00
2022-11-17T02:12:53.131Z,16.10
2022-11-17T02:13:53.025Z,16.10
2022-11-17T02:14:53.028Z,17.40
2022-11-17T02:15:53.046Z,14.30
2022-11-17T02:16:53.010Z,14.50
2022-11-17T02:17:52.992Z,16.80
2022-11-17T02:18:52.978Z,18.10
2022-11-17T02:19:52.966Z,17.60
2022-11-17T02:20:52.969Z,15.80
2022-11-17T02:21:52.974Z,18.70
2022-11-17T02:22:52.953Z,15.70
2022-11-17T02:23:52.956Z,17.70
2022-11-17T02:24:52.939Z,15.60
2022-11-17T02:25:52.926Z,17.10
2022-11-17T02:26:52.900Z,15.70
2022-11-17T02:27:52.908Z,15.50
2022-11-17T02:28:52.907Z,16.50
2022-11-17T02:29:52.876Z,16.70
2022-11-17T02:30:52.884Z,16.00
2022-11-17T02:31:52.872Z,16.10
2022-11-17T02:32:52.869Z,16.30
2022-11-17T02:33:52.857Z,16.10
2022-11-17T02:34:52.833Z,17.90
2022-11-17T02:35:52.826Z,15.20
2022-11-17T02:36:52.823Z,16.40
2022-11-17T02:37:52.805Z,17.20
2022-11-17T02:38:52.778Z,16.50
2022-11-17T02:39:52.780Z,15.10
2022-11-17T02:40:52.759Z,16.20
2022-11-17T02:41:53.811Z,16.40
2022-11-17T02:42:52.759Z,15.40
2022-11-17T02:43:52.760Z,15.50
2022-11-17T02:44:52.800Z,16.80
2022-11-17T02:45:52.711Z,17.80
2022-11-17T02:46:52.730Z,15.30
2022-11-17T02:47:52.703Z,15.50
2022-11-17T02:48:52.689Z,14.80
2022-11-17T02:49:52.667Z,16.70
2022-11-17T02:50:52.681Z,18.20
2022-11-17T02:51:52.677Z,15.90
2022-11-17T02:52:52.643Z,17.40
2022-11-17T02:53:52.664Z,15.60
2022-11-17T02:54:52.651Z,14.40
2022-11-17T02:55:52.632Z,14.80
2022-11-17T02:57:24.510Z,17.30
2022-11-17T02:57:52.599Z,13.50
2022-11-17T02:58:52.598Z,16.00
2022-11-17T02:59:52.610Z,13.70
2022-11-17T03:00:52.662Z,14.40
2022-11-17T03:01:52.665Z,15.70
2022-11-17T03:02:52.564Z,14.80
2022-11-17T03:03:52.586Z,16.80
2022-11-17T03:04:52.565Z,13.70
2022-11-17T03:05:52.525Z,16.10
2022-11-17T03:06:52.586Z,18.10
2022-11-17T03:07:52.497Z,18.70
2022-11-17T03:08:52.508Z,15.60
2022-11-17T03:09:52.483Z,15.20
2022-11-17T03:10:52.503Z,15.50
2022-11-17T03:11:52.467Z,15.30
2022-11-17T03:12:52.450Z,15.90
2022-11-17T03:13:52.473Z,14.20
2022-11-17T03:14:52.475Z,13.70
2022-11-17T03:15:52.449Z,14.30
2022-11-17T03:16:52.496Z,14.60
2022-11-17T03:17:52.411Z,13.10
2022-11-17T03:18:52.408Z,16.00
2022-11-17T03:19:52.385Z,15.30
2022-11-17T03:20:52.376Z,18.00
2022-11-17T03:21:52.369Z,16.20
2022-11-17T03:22:52.352Z,15.60
2022-11-17T03:23:52.358Z,16.70
2022-11-17T03:24:52.341Z,15.30
2022-11-17T03:25:52.324Z,15.90
2022-11-17T03:26:52.316Z,16.60
2022-11-17T03:27:52.336Z,14.00
2022-11-17T03:28:52.315Z,16.00
2022-11-17T03:29:52.286Z,14.80
2022-11-17T03:30:52.294Z,15.70
2022-11-17T03:31:52.266Z,14.90
2022-11-17T03:32:52.258Z,14.80
2022-11-17T03:33:52.271Z,15.80
2022-11-17T03:34:52.234Z,14.10
2022-11-17T03:35:52.228Z,15.30
2022-11-17T03:36:52.223Z,15.00
2022-11-17T03:37:52.196Z,14.80
2022-11-17T03:38:52.253Z,14.20
2022-11-17T03:39:52.173Z,15.30
2022-11-17T03:40:52.176Z,15.60
2022-11-17T03:41:52.155Z,16.30
2022-11-17T03:42:52.138Z,15.90
2022-11-17T03:43:53.194Z,15.70
2022-11-17T03:44:52.123Z,16.10
2022-11-17T03:45:52.115Z,16.20
2022-11-17T03:46:52.105Z,15.30
2022-11-17T03:47:52.095Z,14.80
2022-11-17T03:48:52.160Z,14.80
2022-11-17T03:49:52.100Z,15.60
2022-11-17T03:50:52.089Z,16.30
2022-11-17T03:51:52.063Z,13.90
2022-11-17T03:52:52.043Z,15.30
2022-11-17T03:53:52.095Z,16.80
2022-11-17T03:54:52.037Z,16.90
2022-11-17T03:55:52.034Z,17.60
2022-11-17T03:56:52.072Z,13.90
2022-11-17T03:57:51.998Z,13.50
2022-11-17T03:58:51.976Z,16.90
2022-11-17T03:59:51.978Z,14.80
2022-11-17T04:00:51.984Z,15.10
2022-11-17T04:01:52.020Z,15.00
2022-11-17T04:02:51.955Z,15.80
2022-11-17T04:03:51.937Z,14.30
2022-11-17T04:04:51.921Z,16.60
2022-11-17T04:05:51.943Z,15.80
2022-11-17T04:06:51.945Z,15.30
2022-11-17T04:07:51.906Z,15.10
2022-11-17T04:08:51.883Z,14.20
2022-11-17T04:09:51.878Z,16.80
2022-11-17T04:10:51.888Z,15.30
2022-11-17T04:11:51.862Z,18.20
2022-11-17T04:12:51.855Z,14.80
2022-11-17T04:13:51.840Z,15.20
2022-11-17T04:14:51.829Z,14.80
2022-11-17T04:15:51.833Z,15.00
2022-11-17T04:16:51.811Z,15.60
2022-11-17T04:17:51.801Z,14.20
2022-11-17T04:18:55.921Z,16.50
2022-11-17T04:19:52.782Z,15.20
2022-11-17T04:20:51.797Z,15.60
2022-11-17T04:21:51.760Z,15.80
2022-11-17T04:22:51.743Z,14.80
2022-11-17T04:23:51.729Z,13.70
2022-11-17T04:24:51.772Z,14.80
2022-11-17T04:25:51.726Z,13.30
2022-11-17T04:26:51.705Z,13.10
2022-11-17T04:27:51.694Z,14.30
2022-11-17T04:28:51.681Z,16.10
2022-11-17T04:29:51.763Z,14.40
2022-11-17T04:30:51.660Z,15.70
2022-11-17T04:31:51.686Z,14.70
2022-11-17T04:32:51.640Z,16.10
2022-11-17T04:33:51.643Z,15.40
2022-11-17T04:34:51.615Z,16.90
2022-11-17T04:35:51.617Z,17.00
2022-11-17T04:36:51.633Z,16.50
2022-11-17T04:37:51.599Z,12.20
2022-11-17T04:38:51.589Z,13.40
2022-11-17T04:39:51.570Z,14.80
2022-11-17T04:40:51.561Z,17.10
2022-11-17T04:41:51.572Z,15.90
2022-11-17T04:42:51.540Z,17.20
2022-11-17T04:43:51.540Z,19.80
2022-11-17T04:44:51.523Z,17.80
2022-11-17T04:45:51.532Z,15.80
2022-11-17T04:46:52.526Z,17.00
2022-11-17T04:47:51.487Z,15.70
2022-11-17T04:48:51.482Z,17.20
2022-11-17T04:49:51.502Z,16.60
2022-11-17T04:50:51.582Z,14.60
2022-11-17T04:51:51.486Z,16.10
2022-11-17T04:52:51.516Z,15.20
2022-11-17T04:53:51.429Z,16.10
2022-11-17T04:54:51.416Z,14.70
2022-11-17T04:55:51.418Z,18.20
2022-11-17T04:56:51.427Z,16.80
2022-11-17T04:57:51.445Z,18.40
2022-11-17T04:58:51.389Z,16.40
2022-11-17T04:59:51.371Z,15.80
2022-11-17T05:00:51.368Z,17.30
2022-11-17T05:01:51.437Z,15.60
2022-11-17T05:02:51.354Z,15.00
2022-11-17T05:03:51.320Z,15.80
2022-11-17T05:04:51.350Z,15.20
2022-11-17T05:05:51.310Z,17.70
2022-11-17T05:06:51.328Z,15.20
2022-11-17T05:07:51.297Z,17.10
2022-11-17T05:08:51.289Z,16.50
2022-11-17T05:09:52.298Z,16.70
2022-11-17T05:10:51.293Z,16.00
2022-11-17T05:11:51.261Z,15.30
2022-11-17T05:12:51.253Z,17.10
2022-11-17T05:13:51.252Z,14.60
2022-11-17T05:14:51.235Z,14.40
2022-11-17T05:15:51.214Z,17.30
2022-11-17T05:16:51.219Z,16.60
2022-11-17T05:17:51.201Z,14.70
2022-11-17T05:18:51.186Z,14.50
2022-11-17T05:19:51.185Z,15.10
2022-11-17T05:20:51.173Z,17.50
2022-11-17T05:21:51.177Z,19.30
2022-11-17T05:22:51.164Z,13.80
2022-11-17T05:23:51.140Z,14.80
2022-11-17T05:24:51.210Z,13.70
2022-11-17T05:25:51.115Z,12.90
2022-11-17T05:26:51.111Z,15.00
2022-11-17T05:27:51.086Z,13.10
2022-11-17T05:28:51.084Z,15.40
2022-11-17T05:29:51.093Z,14.10
2022-11-17T05:30:51.061Z,16.30
2022-11-17T05:31:51.066Z,13.50
2022-11-17T05:32:51.044Z,12.40
2022-11-17T05:33:51.048Z,13.30
2022-11-17T05:34:51.050Z,14.50
2022-11-17T05:35:51.025Z,14.20
2022-11-17T05:36:51.020Z,13.60
2022-11-17T05:37:51.021Z,14.20
2022-11-17T05:38:50.988Z,11.90
2022-11-17T05:39:50.980Z,12.80
2022-11-17T05:40:51.030Z,14.00
2022-11-17T05:41:50.950Z,11.20
2022-11-17T05:42:56.865Z,12.60
2022-11-17T05:43:51.930Z,14.90
2022-11-17T05:44:50.908Z,11.90
2022-11-17T05:45:50.912Z,11.90
2022-11-17T05:46:50.899Z,10.00
2022-11-17T05:47:50.889Z,10.80
2022-11-17T05:48:50.901Z,11.10
2022-11-17T05:49:50.865Z,10.90
2022-11-17T05:50:50.864Z,11.60
2022-11-17T05:51:52.882Z,10.90
2022-11-17T05:52:50.869Z,12.90
2022-11-17T05:53:50.839Z,13.90
2022-11-17T05:54:50.825Z,11.30
2022-11-17T05:55:50.810Z,11.50
2022-11-17T05:56:50.880Z,12.10
2022-11-17T05:57:50.793Z,11.80
2022-11-17T05:58:50.793Z,12.90
2022-11-17T05:59:50.764Z,12.50
2022-11-17T06:00:50.809Z,12.50
2022-11-17T06:01:57.558Z,11.40
2022-11-17T06:02:50.747Z,11.60
2022-11-17T06:03:50.739Z,11.90
2022-11-17T06:04:50.724Z,13.40
2022-11-17T06:05:50.699Z,17.10
2022-11-17T06:06:50.768Z,16.30
2022-11-17T06:07:50.708Z,15.60
2022-11-17T06:08:50.672Z,16.60
2022-11-17T06:09:50.682Z,18.00
2022-11-17T06:10:50.717Z,17.20
2022-11-17T06:11:50.660Z,16.50
2022-11-17T06:12:50.708Z,15.90
2022-11-17T06:13:50.657Z,14.40
2022-11-17T06:14:50.611Z,13.60
2022-11-17T06:15:50.612Z,14.80
2022-11-17T06:16:50.584Z,13.00
2022-11-17T06:17:51.616Z,14.40
2022-11-17T06:18:50.577Z,15.40
2022-11-17T06:19:50.557Z,16.50
2022-11-17T06:20:50.578Z,15.60
2022-11-17T06:22:11.097Z,16.00
2022-11-17T06:22:52.536Z,15.60
2022-11-17T06:23:50.511Z,18.50
2022-11-17T06:24:50.513Z,15.40
2022-11-17T06:25:50.522Z,16.10
2022-11-17T06:26:50.481Z,13.10
2022-11-17T06:27:50.510Z,14.00
2022-11-17T06:28:50.478Z,14.20
2022-11-17T06:29:50.465Z,13.40
2022-11-17T06:30:50.452Z,11.40
2022-11-17T06:31:50.437Z,12.50
2022-11-17T06:32:50.487Z,13.70
2022-11-17T06:33:50.416Z,13.50
2022-11-17T06:34:55.268Z,13.70
2022-11-17T06:35:52.400Z,12.50
2022-11-17T06:36:50.393Z,11.50
2022-11-17T06:37:50.381Z,12.20
2022-11-17T06:38:50.391Z,11.90
2022-11-17T06:39:50.373Z,12.20
2022-11-17T06:40:50.375Z,12.70
2022-11-17T06:41:50.340Z,13.90
2022-11-17T06:42:50.330Z,13.20
2022-11-17T06:43:50.319Z,11.60
2022-11-17T06:44:50.409Z,12.20
2022-11-17T06:45:50.307Z,13.70
2022-11-17T06:46:50.292Z,14.10
2022-11-17T06:47:50.279Z,12.60
2022-11-17T06:48:50.274Z,13.30
2022-11-17T06:49:50.263Z,12.90
2022-11-17T06:50:50.275Z,14.20
2022-11-17T06:51:50.239Z,12.50
2022-11-17T06:52:50.276Z,11.60
2022-11-17T06:53:50.267Z,13.40
2022-11-17T06:54:50.249Z,12.80
2022-11-17T06:55:50.258Z,14.90
2022-11-17T06:56:50.218Z,14.30
2022-11-17T06:57:53.356Z,10.00
2022-11-17T06:58:51.217Z,11.90
2022-11-17T06:59:50.200Z,11.90
2022-11-17T07:00:50.261Z,12.20
2022-11-17T07:01:50.177Z,11.90
2022-11-17T07:02:50.157Z,12.70
2022-11-17T07:03:50.156Z,12.70
2022-11-17T07:04:50.145Z,10.80
2022-11-17T07:05:50.153Z,10.00
2022-11-17T07:06:50.307Z,12.40
2022-11-17T07:07:50.137Z,9.90
2022-11-17T07:08:50.128Z,9.30
2022-11-17T07:09:50.115Z,10.70
2022-11-17T07:10:50.084Z,10.70
2022-11-17T07:11:51.094Z,10.40
2022-11-17T07:12:50.071Z,11.60
2022-11-17T07:13:50.106Z,11.20
2022-11-17T07:14:50.049Z,11.10
2022-11-17T07:15:50.056Z,10.80
2022-11-17T07:16:51.101Z,11.90
2022-11-17T07:17:50.019Z,9.80
2022-11-17T07:18:50.031Z,10.10
2022-11-17T07:19:49.995Z,10.20
2022-11-17T07:20:49.993Z,9.90
2022-11-17T07:21:49.975Z,9.20
2022-11-17T07:22:50.977Z,8.90
2022-11-17T07:23:49.977Z,10.80
2022-11-17T07:24:49.951Z,9.30
2022-11-17T07:25:49.930Z,9.30
2022-11-17T07:26:49.944Z,8.50
2022-11-17T07:27:49.911Z,7.50
2022-11-17T07:28:49.918Z,7.10
2022-11-17T07:29:49.894Z,6.90
2022-11-17T07:30:49.891Z,7.10
2022-11-17T07:31:49.927Z,8.10
2022-11-17T07:32:54.553Z,8.60
2022-11-17T07:33:51.849Z,8.20
2022-11-17T07:34:49.853Z,7.20
2022-11-17T07:35:49.848Z,7.80
2022-11-17T07:36:49.837Z,7.90
2022-11-17T07:37:49.811Z,7.40
2022-11-17T07:38:49.811Z,8.40
2022-11-17T07:39:49.825Z,7.40
2022-11-17T07:40:49.779Z,9.00
2022-11-17T07:41:49.787Z,7.50
2022-11-17T07:42:49.783Z,7.30
2022-11-17T07:43:49.769Z,8.20
2022-11-17T07:44:49.767Z,8.50
2022-11-17T07:45:49.748Z,7.70
2022-11-17T07:46:49.740Z,9.80
2022-11-17T07:47:49.719Z,9.70
2022-11-17T07:48:49.718Z,10.70
2022-11-17T07:49:49.700Z,11.20
2022-11-17T07:50:49.706Z,11.20
2022-11-17T07:51:49.678Z,10.60
2022-11-17T07:52:49.663Z,10.00
2022-11-17T07:53:49.681Z,12.50
2022-11-17T07:54:49.647Z,9.40
2022-11-17T07:55:49.644Z,10.60
2022-11-17T07:56:49.650Z,12.70
2022-11-17T07:57:49.630Z,9.40
2022-11-17T07:58:49.650Z,8.60
2022-11-17T07:59:49.614Z,7.70
2022-11-17T08:00:49.782Z,6.90
2022-11-17T08:01:49.570Z,4.60
2022-11-17T08:02:49.568Z,6.60
2022-11-17T08:03:49.625Z,5.50
2022-11-17T08:04:50.618Z,6.00
2022-11-17T08:05:49.539Z,6.70
2022-11-17T08:06:49.702Z,7.60
2022-11-17T08:07:49.521Z,5.70
2022-11-17T08:08:49.534Z,5.10
2022-11-17T08:09:49.504Z,5.80
2022-11-17T08:10:49.473Z,5.50
2022-11-17T08:11:49.485Z,5.00
2022-11-17T08:12:49.489Z,5.50
2022-11-17T08:13:49.457Z,5.10
2022-11-17T08:14:49.450Z,4.30
2022-11-17T08:15:49.456Z,5.30
2022-11-17T08:16:49.425Z,6.30
2022-11-17T08:17:49.414Z,5.40
2022-11-17T08:18:52.362Z,5.80
2022-11-17T08:19:50.390Z,5.30
2022-11-17T08:20:49.401Z,5.50
2022-11-17T08:21:49.411Z,5.20
2022-11-17T08:22:49.363Z,6.10
2022-11-17T08:23:49.351Z,5.20
2022-11-17T08:24:49.336Z,5.40
2022-11-17T08:25:49.336Z,6.10
2022-11-17T08:26:49.353Z,5.60
2022-11-17T08:27:49.322Z,5.30
2022-11-17T08:28:53.599Z,4.90
2022-11-17T08:29:51.289Z,5.70
2022-11-17T08:30:49.281Z,5.10
2022-11-17T08:31:49.288Z,5.20
2022-11-17T08:32:49.295Z,4.60
2022-11-17T08:33:49.258Z,5.90
2022-11-17T08:34:49.256Z,5.60
2022-11-17T08:35:49.244Z,5.60
2022-11-17T08:36:49.297Z,6.40
2022-11-17T08:37:49.239Z,6.00
2022-11-17T08:38:49.215Z,6.70
2022-11-17T08:39:49.216Z,7.60
2022-11-17T08:40:49.190Z,6.40
2022-11-17T08:41:49.189Z,5.50
2022-11-17T08:42:49.208Z,5.20
2022-11-17T08:43:49.178Z,4.80
2022-11-17T08:44:49.180Z,6.00
2022-11-17T08:45:49.142Z,5.40
2022-11-17T08:46:49.135Z,5.60
2022-11-17T08:47:49.129Z,5.90
2022-11-17T08:48:55.466Z,6.80
2022-11-17T08:49:51.104Z,4.60
2022-11-17T08:50:49.116Z,5.80
2022-11-17T08:51:49.086Z,6.00
2022-11-17T08:52:49.149Z,5.50
2022-11-17T08:53:49.112Z,4.50
2022-11-17T08:54:49.046Z,4.10
2022-11-17T08:55:50.114Z,5.00
2022-11-17T08:56:49.104Z,5.30
2022-11-17T08:58:20.957Z,4.20
2022-11-17T08:58:49.054Z,4.30
2022-11-17T08:59:49.013Z,4.60
2022-11-17T09:00:49.031Z,4.40
2022-11-17T09:01:48.985Z,4.80
2022-11-17T09:02:48.966Z,4.80
2022-11-17T09:03:48.950Z,4.10
2022-11-17T09:04:48.940Z,4.80
2022-11-17T09:05:48.956Z,4.50
2022-11-17T09:06:48.922Z,5.70
2022-11-17T09:07:49.025Z,4.40
2022-11-17T09:08:49.777Z,4.40
2022-11-17T09:09:48.881Z,3.80
2022-11-17T09:10:48.865Z,4.50
2022-11-17T09:11:48.890Z,3.30
2022-11-17T09:12:48.868Z,3.40
2022-11-17T09:13:48.843Z,2.50
2022-11-17T09:14:48.825Z,4.70
2022-11-17T09:15:48.816Z,3.40
2022-11-17T09:16:48.825Z,2.60
2022-11-17T09:17:48.832Z,3.30
2022-11-17T09:18:48.797Z,2.90
2022-11-17T09:19:48.816Z,3.80
2022-11-17T09:20:48.771Z,3.10
2022-11-17T09:21:48.800Z,2.90
2022-11-17T09:22:48.751Z,3.20
2022-11-17T09:23:48.756Z,4.80
2022-11-17T09:24:48.831Z,3.80
2022-11-17T09:25:48.716Z,4.40
2022-11-17T09:26:48.701Z,6.20
2022-11-17T09:27:48.698Z,4.20
2022-11-17T09:28:48.713Z,4.60
2022-11-17T09:29:48.683Z,7.30
2022-11-17T09:30:48.696Z,3.80
2022-11-17T09:31:48.786Z,3.60
2022-11-17T09:32:48.650Z,3.10
2022-11-17T09:33:48.654Z,3.30
2022-11-17T09:34:48.693Z,4.10
2022-11-17T09:35:48.633Z,3.40
2022-11-17T09:36:48.604Z,2.90
2022-11-17T09:37:48.610Z,2.70
2022-11-17T09:38:48.614Z,3.50
2022-11-17T09:39:48.578Z,3.80
2022-11-17T09:40:48.562Z,4.30
2022-11-17T09:41:48.579Z,2.90
2022-11-17T09:42:48.545Z,4.40
2022-11-17T09:43:48.598Z,3.20
2022-11-17T09:44:48.534Z,3.30
2022-11-17T09:45:48.525Z,4.70
2022-11-17T09:46:48.508Z,6.90
2022-11-17T09:47:48.506Z,8.00
2022-11-17T09:48:48.512Z,14.50
2022-11-17T09:49:52.188Z,10.00
2022-11-17T09:50:50.473Z,9.10
2022-11-17T09:51:48.462Z,6.80
2022-11-17T09:52:48.452Z,6.60
2022-11-17T09:53:48.442Z,7.10
2022-11-17T09:54:48.522Z,5.20
2022-11-17T09:55:48.430Z,5.20
2022-11-17T09:56:48.412Z,5.80
2022-11-17T09:57:48.434Z,5.30
2022-11-17T09:58:48.410Z,7.10
2022-11-17T09:59:48.393Z,6.00
2022-11-17T10:00:48.392Z,6.00
2022-11-17T10:01:48.457Z,5.60
2022-11-17T10:02:48.374Z,5.30
2022-11-17T10:03:48.600Z,5.70
2022-11-17T10:04:48.345Z,6.00
2022-11-17T10:05:48.331Z,3.90
2022-11-17T10:06:48.331Z,3.50
2022-11-17T10:07:48.311Z,5.40
2022-11-17T10:08:48.306Z,6.10
2022-11-17T10:09:48.291Z,8.70
2022-11-17T10:10:48.293Z,5.70
2022-11-17T10:11:48.294Z,5.90
2022-11-17T10:12:48.346Z,5.90
2022-11-17T10:13:48.229Z,7.20
2022-11-17T10:14:48.231Z,6.60
2022-11-17T10:15:48.220Z,6.70
2022-11-17T10:16:48.215Z,7.50
2022-11-17T10:17:48.220Z,7.20
2022-11-17T10:18:48.197Z,8.10
2022-11-17T10:19:48.192Z,12.40
2022-11-17T10:20:48.176Z,11.70
2022-11-17T10:21:48.167Z,7.90
2022-11-17T10:22:48.182Z,5.80
2022-11-17T10:23:48.437Z,5.80
2022-11-17T10:24:48.157Z,6.50
2022-11-17T10:25:48.123Z,5.40
2022-11-17T10:26:48.113Z,5.00
2022-11-17T10:27:48.092Z,7.10
2022-11-17T10:28:48.194Z,3.70
2022-11-17T10:29:48.085Z,4.00
2022-11-17T10:30:48.095Z,5.30
2022-11-17T10:31:48.061Z,4.00
2022-11-17T10:32:48.430Z,4.30
2022-11-17T10:33:49.099Z,3.90
2022-11-17T10:34:48.045Z,4.70
2022-11-17T10:35:48.030Z,6.00
2022-11-17T10:36:48.009Z,4.20
2022-11-17T10:37:48.015Z,6.00
2022-11-17T10:38:48.013Z,7.40
2022-11-17T10:39:47.984Z,5.20
2022-11-17T10:40:48.004Z,92.60
2022-11-17T10:41:47.971Z,41.30
2022-11-17T10:42:47.954Z,63.20
2022-11-17T10:43:47.963Z,13.90
2022-11-17T10:44:47.925Z,9.50
2022-11-17T10:45:47.949Z,8.40
2022-11-17T10:46:47.923Z,9.40
2022-11-17T10:47:47.903Z,8.10
2022-11-17T10:48:47.904Z,8.30
2022-11-17T10:49:47.903Z,9.10
2022-11-17T10:50:47.891Z,9.80
2022-11-17T10:51:47.903Z,8.20
2022-11-17T10:52:47.851Z,7.50
2022-11-17T10:53:48.143Z,7.60
2022-11-17T10:54:47.837Z,11.00
2022-11-17T10:55:47.834Z,8.00
2022-11-17T10:56:47.832Z,7.10
2022-11-17T10:57:47.807Z,6.80
2022-11-17T10:58:47.833Z,6.60
2022-11-17T10:59:50.817Z,5.20
2022-11-17T11:00:49.832Z,5.00
2022-11-17T11:01:47.793Z,6.50
2022-11-17T11:02:47.767Z,5.80
2022-11-17T11:03:47.771Z,6.20
2022-11-17T11:04:47.803Z,7.10
2022-11-17T11:05:47.728Z,7.00
2022-11-17T11:06:47.705Z,6.00
2022-11-17T11:07:47.700Z,5.20
2022-11-17T11:08:47.675Z,4.20
2022-11-17T11:09:47.689Z,4.50
2022-11-17T11:10:47.692Z,5.80
2022-11-17T11:11:47.670Z,7.00
2022-11-17T11:12:47.653Z,4.60
2022-11-17T11:13:47.635Z,5.60
2022-11-17T11:14:47.632Z,6.70
2022-11-17T11:15:47.640Z,6.30
2022-11-17T11:16:48.368Z,6.00
2022-11-17T11:17:48.596Z,6.20
2022-11-17T11:18:47.595Z,6.50
2022-11-17T11:19:47.595Z,8.80
2022-11-17T11:20:47.571Z,7.80
2022-11-17T11:21:47.578Z,6.70
2022-11-17T11:22:47.577Z,8.60
2022-11-17T11:23:47.535Z,7.50
2022-11-17T11:24:47.535Z,5.60
2022-11-17T11:25:47.521Z,4.70
2022-11-17T11:26:47.539Z,7.20
2022-11-17T11:27:47.501Z,5.10
2022-11-17T11:28:52.686Z,4.10
2022-11-17T11:29:47.484Z,3.10
2022-11-17T11:30:47.462Z,4.10
2022-11-17T11:31:47.481Z,5.90
2022-11-17T11:32:47.518Z,4.90
2022-11-17T11:33:47.438Z,2.60
2022-11-17T11:34:47.457Z,3.60
2022-11-17T11:35:47.412Z,3.50
2022-11-17T11:36:47.405Z,2.90
2022-11-17T11:37:47.407Z,2.90
2022-11-17T11:38:47.407Z,3.10
2022-11-17T11:39:47.379Z,2.90
2022-11-17T11:40:47.377Z,3.40
2022-11-17T11:41:47.362Z,6.60
2022-11-17T11:42:47.350Z,3.60
2022-11-17T11:43:47.377Z,4.10
2022-11-17T11:44:47.335Z,3.70
2022-11-17T11:45:47.329Z,4.10
2022-11-17T11:46:47.313Z,3.50
2022-11-17T11:47:47.292Z,3.90
2022-11-17T11:48:47.304Z,3.40
2022-11-17T11:49:47.275Z,2.90
2022-11-17T11:50:47.271Z,4.40
2022-11-17T11:51:47.252Z,5.80
2022-11-17T11:52:47.240Z,4.90
2022-11-17T11:53:47.514Z,4.30
2022-11-17T11:54:50.799Z,5.80
2022-11-17T11:55:48.216Z,4.10
2022-11-17T11:56:47.229Z,4.90
2022-11-17T11:57:47.222Z,3.20
2022-11-17T11:58:47.191Z,2.30
2022-11-17T11:59:47.182Z,2.50
2022-11-17T12:00:47.166Z,1.70
2022-11-17T12:01:47.156Z,2.00
2022-11-17T12:02:47.205Z,2.00
2022-11-17T12:03:47.131Z,1.80
2022-11-17T12:04:47.141Z,3.20
2022-11-17T12:05:47.106Z,3.40
2022-11-17T12:06:47.118Z,2.80
2022-11-17T12:07:47.137Z,2.40
2022-11-17T12:08:47.105Z,4.00
2022-11-17T12:09:47.075Z,2.50
2022-11-17T12:10:47.059Z,1.10
2022-11-17T12:11:47.070Z,1.50
2022-11-17T12:12:47.058Z,2.90
2022-11-17T12:13:52.727Z,2.00
2022-11-17T12:14:48.021Z,1.80
2022-11-17T12:15:47.021Z,1.20
2022-11-17T12:16:47.011Z,2.40
2022-11-17T12:17:47.004Z,1.80
2022-11-17T12:18:46.996Z,1.70
2022-11-17T12:19:46.995Z,2.00
2022-11-17T12:20:46.971Z,2.00
2022-11-17T12:21:46.964Z,1.50
2022-11-17T12:22:46.966Z,2.50
2022-11-17T12:23:46.946Z,1.90
2022-11-17T12:24:46.956Z,1.70
2022-11-17T12:25:52.239Z,1.90
2022-11-17T12:26:47.923Z,2.10
2022-11-17T12:27:46.995Z,1.50
2022-11-17T12:28:46.905Z,2.50
2022-11-17T12:29:46.878Z,2.90
2022-11-17T12:30:46.863Z,2.10
2022-11-17T12:31:46.900Z,2.80
2022-11-17T12:32:46.838Z,1.80
2022-11-17T12:33:46.829Z,3.90
2022-11-17T12:34:46.919Z,2.60
2022-11-17T12:35:46.817Z,2.80
2022-11-17T12:36:46.839Z,2.30
2022-11-17T12:37:46.814Z,2.40
2022-11-17T12:38:46.802Z,2.20
2022-11-17T12:39:46.769Z,3.90
2022-11-17T12:40:46.787Z,1.90
2022-11-17T12:41:46.783Z,3.00
2022-11-17T12:42:46.736Z,3.30
2022-11-17T12:43:46.763Z,3.10
2022-11-17T12:44:46.733Z,1.70
2022-11-17T12:45:46.706Z,2.20
2022-11-17T12:46:46.714Z,4.00
2022-11-17T12:47:59.470Z,2.50
2022-11-17T12:48:48.747Z,1.30
2022-11-17T12:49:46.672Z,2.80
2022-11-17T12:50:46.658Z,4.30
2022-11-17T12:51:46.637Z,2.30
2022-11-17T12:52:46.656Z,5.00
2022-11-17T12:53:46.639Z,2.30
2022-11-17T12:54:46.613Z,1.90
2022-11-17T12:55:46.636Z,2.00
2022-11-17T12:56:46.616Z,3.10
2022-11-17T12:57:46.590Z,3.60
2022-11-17T12:58:46.580Z,2.70
2022-11-17T12:59:46.594Z,4.40
2022-11-17T13:00:46.568Z,1.80
2022-11-17T13:01:46.617Z,4.70
2022-11-17T13:02:46.542Z,2.90
2022-11-17T13:03:46.536Z,3.50